createdAt,value
2019-04-01T00:00:45.465Z,7.17
2019-04-01T00:03:14.261Z,8.23
2019-04-01T00:05:42.981Z,7.70
2019-04-01T00:08:11.698Z,8.27
2019-04-01T00:10:40.663Z,7.83
2019-04-01T00:13:09.384Z,8.13
2019-04-01T00:15:38.099Z,8.23
2019-04-01T00:18:06.965Z,8.13
2019-04-01T00:20:35.683Z,8.80
2019-04-01T00:23:04.563Z,8.00
2019-04-01T00:25:33.991Z,8.60
2019-04-01T00:28:03.763Z,8.93
2019-04-01T00:30:32.477Z,9.37
2019-04-01T00:33:01.568Z,10.00
2019-04-01T00:35:30.283Z,9.37
2019-04-01T00:37:58.998Z,9.30
2019-04-01T00:40:27.901Z,8.37
2019-04-01T00:43:14.568Z,10.17
2019-04-01T00:45:45.098Z,10.23
2019-04-01T00:48:13.810Z,9.20
2019-04-01T00:50:42.521Z,9.10
2019-04-01T00:53:11.394Z,9.20
2019-04-01T00:55:40.112Z,10.10
2019-04-01T00:58:08.822Z,9.93
2019-04-01T01:00:37.688Z,9.40
2019-04-01T01:03:06.410Z,8.70
2019-04-01T01:05:35.121Z,9.43
2019-04-01T01:08:04.169Z,9.27
2019-04-01T01:10:32.896Z,10.33
2019-04-01T01:13:01.616Z,12.10
2019-04-01T01:15:30.488Z,12.47
2019-04-01T01:17:59.207Z,12.13
2019-04-01T01:20:27.935Z,11.50
2019-04-01T01:22:57.146Z,11.20
2019-04-01T01:25:25.877Z,10.63
2019-04-01T01:27:54.598Z,10.20
2019-04-01T01:30:23.558Z,11.10
2019-04-01T01:32:52.294Z,13.43
2019-04-01T01:35:21.072Z,13.43
2019-04-01T01:37:49.835Z,12.60
2019-04-01T01:40:18.563Z,11.90
2019-04-01T01:42:47.278Z,12.53
2019-04-01T01:45:16.072Z,13.33
2019-04-01T01:47:44.790Z,13.90
2019-04-01T01:50:13.611Z,10.70
2019-04-01T01:52:45.580Z,9.53
2019-04-01T01:55:14.298Z,10.47
2019-04-01T01:57:43.214Z,9.17
2019-04-01T02:00:13.391Z,9.90
2019-04-01T02:02:42.118Z,9.97
2019-04-01T02:05:10.833Z,11.33
2019-04-01T02:07:39.595Z,14.83
2019-04-01T02:10:08.410Z,13.87
2019-04-01T02:12:37.132Z,11.93
2019-04-01T02:15:07.446Z,11.00
2019-04-01T02:17:36.165Z,10.90
2019-04-01T02:20:05.879Z,10.90
2019-04-01T02:22:34.747Z,9.27
2019-04-01T02:25:03.670Z,9.60
2019-04-01T02:27:32.384Z,10.00
2019-04-01T02:30:01.576Z,10.13
2019-04-01T02:32:30.306Z,10.03
2019-04-01T02:34:59.042Z,10.00
2019-04-01T02:37:27.920Z,10.63
2019-04-01T02:39:56.636Z,11.37
2019-04-01T02:42:25.458Z,10.83
2019-04-01T02:44:54.225Z,11.30
2019-04-01T02:47:22.946Z,11.20
2019-04-01T02:49:51.665Z,10.23
2019-04-01T02:52:20.542Z,10.30
2019-04-01T02:54:49.256Z,11.13
2019-04-01T02:57:17.974Z,9.20
2019-04-01T02:59:46.822Z,11.53
2019-04-01T03:02:15.541Z,10.07
2019-04-01T03:04:44.261Z,10.47
2019-04-01T03:07:13.042Z,12.10
2019-04-01T03:09:41.782Z,11.03
2019-04-01T03:12:10.494Z,11.10
2019-04-01T03:14:39.253Z,13.60
2019-04-01T03:17:07.969Z,13.17
2019-04-01T03:19:36.686Z,13.43
2019-04-01T03:22:05.518Z,12.03
2019-04-01T03:24:34.242Z,12.70
2019-04-01T03:27:02.956Z,12.10
2019-04-01T03:29:31.723Z,11.40
2019-04-01T03:32:00.460Z,10.87
2019-04-01T03:34:29.176Z,11.97
2019-04-01T03:36:58.035Z,11.23
2019-04-01T03:39:26.759Z,11.40
2019-04-01T03:41:55.492Z,10.93
2019-04-01T03:44:24.385Z,10.83
2019-04-01T03:46:53.105Z,11.00
2019-04-01T03:49:21.820Z,11.57
2019-04-01T03:51:50.633Z,12.17
2019-04-01T03:54:19.353Z,11.50
2019-04-01T03:56:48.071Z,12.50
2019-04-01T03:59:17.241Z,12.10
2019-04-01T04:01:45.991Z,11.77
2019-04-01T04:04:14.690Z,11.67
2019-04-01T04:06:43.463Z,11.10
2019-04-01T04:09:12.234Z,13.27
2019-04-01T04:11:40.981Z,10.83
2019-04-01T04:14:09.790Z,12.07
2019-04-01T04:16:38.526Z,13.10
2019-04-01T04:19:07.249Z,12.87
2019-04-01T04:21:36.135Z,12.37
2019-04-01T04:24:04.918Z,12.97
2019-04-01T04:26:33.631Z,12.93
2019-04-01T04:29:02.527Z,12.77
2019-04-01T04:31:31.241Z,13.77
2019-04-01T04:33:59.961Z,13.27
2019-04-01T04:36:29.268Z,14.57
2019-04-01T04:38:57.995Z,15.60
2019-04-01T04:41:26.707Z,14.13
2019-04-01T04:43:55.596Z,15.53
2019-04-01T04:46:24.319Z,13.77
2019-04-01T04:48:53.036Z,14.00
2019-04-01T04:51:21.801Z,13.47
2019-04-01T04:53:50.519Z,15.13
2019-04-01T04:56:19.233Z,12.93
2019-04-01T04:58:48.196Z,13.67
2019-04-01T05:01:16.921Z,13.97
2019-04-01T05:03:45.646Z,12.10
2019-04-01T05:06:14.477Z,14.13
2019-04-01T05:08:43.208Z,14.40
2019-04-01T05:11:11.925Z,12.97
2019-04-01T05:13:40.718Z,13.63
2019-04-01T05:16:09.434Z,14.00
2019-04-01T05:18:38.157Z,14.00
2019-04-01T05:21:07.245Z,12.00
2019-04-01T05:23:35.961Z,12.40
2019-04-01T05:26:04.684Z,16.27
2019-04-01T05:28:34.938Z,15.30
2019-04-01T05:31:04.955Z,14.63
2019-04-01T05:33:36.684Z,15.30
2019-04-01T05:36:05.956Z,13.70
2019-04-01T05:38:34.665Z,14.50
2019-04-01T05:41:04.090Z,13.97
2019-04-01T05:43:32.932Z,13.90
2019-04-01T05:46:01.653Z,13.20
2019-04-01T05:48:31.572Z,15.03
2019-04-01T05:51:00.420Z,13.57
2019-04-01T05:53:29.156Z,11.83
2019-04-01T05:55:58.078Z,13.57
2019-04-01T05:58:26.834Z,14.53
2019-04-01T06:01:00.132Z,22.60
2019-04-01T06:03:28.955Z,20.60
2019-04-01T06:05:57.729Z,13.17
2019-04-01T06:08:26.455Z,12.90
2019-04-01T06:10:55.178Z,14.50
2019-04-01T06:13:24.138Z,14.00
2019-04-01T06:15:52.859Z,15.17
2019-04-01T06:18:21.780Z,16.30
2019-04-01T06:20:50.604Z,16.43
2019-04-01T06:23:20.764Z,17.47
2019-04-01T06:25:49.586Z,19.20
2019-04-01T06:28:18.344Z,18.67
2019-04-01T06:30:47.170Z,19.83
2019-04-01T06:33:15.906Z,61.73
2019-04-01T06:35:45.027Z,23.23
2019-04-01T06:38:13.951Z,19.73
2019-04-01T06:40:42.676Z,18.13
2019-04-01T06:43:11.551Z,14.57
2019-04-01T06:45:40.331Z,18.47
2019-04-01T06:48:09.065Z,17.80
2019-04-01T06:50:38.233Z,14.87
2019-04-01T06:53:06.954Z,12.73
2019-04-01T06:55:35.689Z,13.00
2019-04-01T06:58:04.615Z,12.97
2019-04-01T07:00:33.344Z,23.67
2019-04-01T07:03:02.070Z,12.23
2019-04-01T07:05:30.941Z,12.67
2019-04-01T07:07:59.970Z,13.67
2019-04-01T07:10:28.806Z,11.93
2019-04-01T07:12:57.689Z,11.57
2019-04-01T07:15:26.490Z,11.53
2019-04-01T07:17:55.209Z,11.33
2019-04-01T07:20:24.082Z,9.90
2019-04-01T07:22:52.908Z,11.87
2019-04-01T07:25:21.627Z,9.87
2019-04-01T07:27:50.906Z,9.53
2019-04-01T07:30:19.731Z,10.37
2019-04-01T07:32:48.456Z,9.97
2019-04-01T07:35:17.276Z,10.40
2019-04-01T07:37:46.003Z,10.97
2019-04-01T07:40:14.744Z,15.30
2019-04-01T07:42:43.605Z,11.47
2019-04-01T07:45:12.332Z,16.13
2019-04-01T07:47:41.105Z,11.90
2019-04-01T07:50:12.286Z,13.03
2019-04-01T07:52:40.825Z,9.97
2019-04-01T07:55:10.047Z,9.43
2019-04-01T07:57:39.274Z,10.17
2019-04-01T08:00:08.083Z,9.97
2019-04-01T08:02:36.801Z,9.47
2019-04-01T08:05:06.788Z,9.77
2019-04-01T08:07:35.502Z,9.10
2019-04-01T08:10:06.523Z,10.10
2019-04-01T08:12:35.475Z,12.83
2019-04-01T08:15:06.206Z,12.07
2019-04-01T08:17:34.929Z,10.53
2019-04-01T08:20:04.011Z,9.60
2019-04-01T08:22:32.734Z,10.30
2019-04-01T08:25:02.059Z,12.13
2019-04-01T08:27:30.815Z,9.93
2019-04-01T08:29:59.545Z,10.03
2019-04-01T08:32:28.301Z,11.17
2019-04-01T08:34:57.565Z,10.33
2019-04-01T08:37:26.553Z,10.37
2019-04-01T08:39:55.281Z,7.83
2019-04-01T08:42:24.122Z,8.63
2019-04-01T08:44:52.848Z,8.63
2019-04-01T08:47:21.579Z,9.67
2019-04-01T08:49:50.488Z,8.83
2019-04-01T08:52:19.213Z,9.33
2019-04-01T08:54:47.940Z,8.73
2019-04-01T08:57:16.797Z,8.30
2019-04-01T08:59:45.510Z,8.37
2019-04-01T09:02:18.297Z,8.67
2019-04-01T09:04:44.936Z,8.13
2019-04-01T09:07:13.681Z,8.30
2019-04-01T09:09:44.760Z,7.70
2019-04-01T09:12:13.845Z,6.83
2019-04-01T09:14:43.362Z,7.73
2019-04-01T09:17:12.790Z,6.03
2019-04-01T09:19:41.935Z,6.37
2019-04-01T09:22:10.655Z,6.87
2019-04-01T09:24:39.385Z,7.60
2019-04-01T09:27:08.166Z,6.30
2019-04-01T09:29:36.891Z,6.40
2019-04-01T09:32:05.615Z,7.17
2019-04-01T09:34:34.464Z,7.23
2019-04-01T09:37:03.186Z,6.93
2019-04-01T09:39:31.906Z,6.60
2019-04-01T09:42:00.754Z,6.30
2019-04-01T09:44:36.522Z,7.33
2019-04-01T09:46:59.920Z,6.63
2019-04-01T09:49:28.708Z,5.67
2019-04-01T09:51:57.515Z,5.50
2019-04-01T09:54:26.208Z,5.77
2019-04-01T09:56:55.057Z,5.80
2019-04-01T09:59:23.801Z,5.50
2019-04-01T10:01:52.524Z,5.50
2019-04-01T10:04:21.279Z,5.60
2019-04-01T10:06:49.991Z,6.07
2019-04-01T10:09:18.714Z,7.50
2019-04-01T10:11:47.545Z,6.57
2019-04-01T10:14:16.253Z,7.07
2019-04-01T10:16:44.982Z,6.20
2019-04-01T10:19:13.830Z,5.70
2019-04-01T10:21:45.216Z,9.10
2019-04-01T10:24:13.003Z,5.70
2019-04-01T10:26:41.795Z,7.57
2019-04-01T10:29:10.512Z,5.77
2019-04-01T10:31:39.319Z,5.90
2019-04-01T10:34:07.335Z,5.33
2019-04-01T10:36:36.057Z,5.07
2019-04-01T10:39:06.941Z,5.37
2019-04-01T10:41:35.805Z,5.47
2019-04-01T10:44:05.327Z,5.47
2019-04-01T10:46:34.107Z,7.00
2019-04-01T10:49:03.013Z,5.40
2019-04-01T10:51:31.775Z,8.73
2019-04-01T10:54:00.480Z,5.27
2019-04-01T10:56:29.365Z,5.97
2019-04-01T10:58:58.160Z,5.60
2019-04-01T11:01:26.985Z,5.50
2019-04-01T11:03:55.741Z,5.83
2019-04-01T11:06:24.596Z,5.63
2019-04-01T11:08:53.359Z,5.43
2019-04-01T11:11:22.119Z,4.60
2019-04-01T11:13:51.991Z,5.10
2019-04-01T11:16:21.691Z,4.97
2019-04-01T11:18:50.738Z,5.30
2019-04-01T11:21:19.515Z,6.10
2019-04-01T11:23:48.368Z,5.27
2019-04-01T11:26:17.727Z,4.50
2019-04-01T11:28:46.433Z,5.13
2019-04-01T11:31:15.169Z,5.13
2019-04-01T11:33:44.220Z,5.10
2019-04-01T11:36:13.910Z,4.83
2019-04-01T11:38:43.019Z,6.00
2019-04-01T11:41:12.221Z,5.70
2019-04-01T11:43:40.958Z,4.67
2019-04-01T11:46:12.519Z,4.87
2019-04-01T11:48:40.156Z,4.57
2019-04-01T11:51:08.869Z,4.57
2019-04-01T11:53:37.671Z,4.37
2019-04-01T11:56:07.181Z,3.83
2019-04-01T11:58:35.900Z,4.10
2019-04-01T12:01:04.625Z,4.30
2019-04-01T12:03:33.935Z,4.17
2019-04-01T12:06:02.659Z,4.43
2019-04-01T12:08:31.671Z,4.33
2019-04-01T12:11:00.559Z,4.00
2019-04-01T12:13:29.282Z,4.60
2019-04-01T12:15:57.992Z,4.47
2019-04-01T12:18:26.752Z,4.57
2019-04-01T12:20:55.470Z,4.13
2019-04-01T12:23:24.184Z,4.53
2019-04-01T12:25:53.019Z,4.13
2019-04-01T12:28:21.731Z,4.63
2019-04-01T12:30:52.018Z,4.70
2019-04-01T12:33:21.102Z,4.50
2019-04-01T12:35:50.073Z,4.67
2019-04-01T12:38:18.806Z,4.10
2019-04-01T12:40:47.583Z,4.10
2019-04-01T12:43:16.313Z,4.10
2019-04-01T12:45:45.217Z,4.33
2019-04-01T12:48:14.094Z,3.87
2019-04-01T12:50:42.819Z,5.13
2019-04-01T12:53:11.537Z,3.87
2019-04-01T12:55:44.669Z,3.90
2019-04-01T12:58:11.269Z,4.00
2019-04-01T13:00:39.979Z,4.53
2019-04-01T13:03:08.766Z,4.80
2019-04-01T13:05:37.490Z,4.07
2019-04-01T13:08:06.205Z,3.90
2019-04-01T13:10:35.308Z,3.70
2019-04-01T13:13:04.121Z,3.97
2019-04-01T13:15:32.834Z,4.10
2019-04-01T13:18:01.595Z,4.60
2019-04-01T13:20:37.689Z,3.70
2019-04-01T13:23:00.763Z,3.73
2019-04-01T13:25:29.533Z,4.00
2019-04-01T13:27:58.267Z,3.40
2019-04-01T13:30:26.978Z,3.27
2019-04-01T13:32:56.258Z,3.50
2019-04-01T13:35:24.971Z,3.67
2019-04-01T13:37:53.686Z,3.67
2019-04-01T13:40:22.442Z,3.73
2019-04-01T13:42:51.167Z,3.87
2019-04-01T13:45:21.402Z,3.47
2019-04-01T13:47:50.722Z,3.60
2019-04-01T13:50:19.443Z,6.27
2019-04-01T13:52:48.167Z,3.57
2019-04-01T13:55:17.014Z,3.33
2019-04-01T13:57:45.736Z,3.13
2019-04-01T14:00:15.094Z,3.63
2019-04-01T14:02:44.045Z,3.27
2019-04-01T14:05:13.177Z,3.87
2019-04-01T14:07:41.887Z,3.50
2019-04-01T14:10:11.130Z,5.03
2019-04-01T14:12:39.844Z,5.27
2019-04-01T14:15:09.759Z,3.73
2019-04-01T14:17:38.820Z,3.27
2019-04-01T14:20:07.835Z,3.50
2019-04-01T14:22:36.546Z,3.93
2019-04-01T14:25:07.619Z,3.67
2019-04-01T14:27:36.382Z,3.57
2019-04-01T14:30:09.278Z,3.83
2019-04-01T14:32:38.162Z,4.37
2019-04-01T14:35:08.850Z,3.33
2019-04-01T14:37:37.588Z,3.90
2019-04-01T14:40:08.766Z,3.97
2019-04-01T14:42:39.605Z,3.50
2019-04-01T14:45:08.633Z,3.60
2019-04-01T14:47:55.581Z,3.73
2019-04-01T14:50:08.903Z,3.43
2019-04-01T14:52:37.631Z,3.40
2019-04-01T14:55:06.583Z,3.30
2019-04-01T14:57:35.301Z,3.80
2019-04-01T15:00:06.315Z,3.67
2019-04-01T15:02:35.307Z,3.47
2019-04-01T15:05:04.994Z,4.77
2019-04-01T15:07:33.824Z,3.80
2019-04-01T15:10:02.593Z,4.43
2019-04-01T15:12:31.323Z,4.43
2019-04-01T15:15:00.034Z,4.27
2019-04-01T15:17:28.999Z,5.00
2019-04-01T15:19:57.734Z,7.20
2019-04-01T15:22:27.237Z,5.00
2019-04-01T15:24:56.273Z,4.63
2019-04-01T15:27:24.996Z,5.37
2019-04-01T15:29:53.728Z,6.00
2019-04-01T15:32:23.197Z,5.03
2019-04-01T15:34:52.194Z,4.43
2019-04-01T15:37:20.919Z,4.67
2019-04-01T15:39:49.994Z,4.53
2019-04-01T15:42:18.754Z,4.80
2019-04-01T15:44:47.482Z,5.67
2019-04-01T15:47:16.515Z,6.10
2019-04-01T15:49:45.194Z,5.00
2019-04-01T15:52:13.878Z,5.40
2019-04-01T15:54:42.607Z,5.73
2019-04-01T15:57:15.001Z,7.57
2019-04-01T15:59:41.705Z,8.77
2019-04-01T16:02:16.157Z,9.07
2019-04-01T16:04:44.861Z,16.03
2019-04-01T16:07:13.538Z,16.73
2019-04-01T16:09:42.375Z,46.03
2019-04-01T16:12:11.062Z,61.13
2019-04-01T16:14:40.287Z,49.93
2019-04-01T16:17:09.626Z,84.33
2019-04-01T16:19:38.319Z,108.77
2019-04-01T16:22:07.001Z,113.80
2019-04-01T16:24:35.836Z,22.40
2019-04-01T16:27:04.524Z,18.77
2019-04-01T16:29:33.209Z,8.97
2019-04-01T16:32:01.981Z,10.63
2019-04-01T16:34:30.671Z,10.97
2019-04-01T16:36:59.346Z,11.60
2019-04-01T16:39:28.079Z,150.80
2019-04-01T16:41:56.756Z,34.70
2019-04-01T16:44:25.444Z,53.97
2019-04-01T16:46:54.298Z,58.90
2019-04-01T16:49:22.978Z,58.83
2019-04-01T16:51:51.670Z,261.03
2019-04-01T16:54:20.421Z,706.87
2019-04-01T16:56:49.120Z,412.87
2019-04-01T16:59:17.813Z,355.93
2019-04-01T17:01:46.788Z,364.23
2019-04-01T17:04:17.070Z,55.03
2019-04-01T17:06:46.021Z,23.73
2019-04-01T17:09:14.833Z,85.03
2019-04-01T17:11:43.531Z,21.50
2019-04-01T17:14:12.217Z,18.07
2019-04-01T17:16:41.378Z,9.60
2019-04-01T17:19:10.112Z,9.30
2019-04-01T17:21:38.750Z,9.87
2019-04-01T17:24:07.598Z,8.67
2019-04-01T17:26:44.815Z,8.67
2019-04-01T17:29:13.547Z,10.13
2019-04-01T17:31:42.232Z,13.27
2019-04-01T17:34:10.913Z,21.23
2019-04-01T17:36:40.135Z,24.30
2019-04-01T17:39:12.140Z,25.63
2019-04-01T17:41:42.231Z,28.47
2019-04-01T17:44:11.070Z,27.33
2019-04-01T17:46:39.749Z,24.83
2019-04-01T17:49:08.439Z,24.30
2019-04-01T17:51:37.480Z,23.03
2019-04-01T17:54:06.168Z,20.53
2019-04-01T17:56:34.851Z,19.97
2019-04-01T17:59:04.053Z,21.50
2019-04-01T18:01:32.776Z,23.30
2019-04-01T18:04:02.522Z,20.57
2019-04-01T18:06:31.680Z,17.73
2019-04-01T18:09:00.441Z,18.90
2019-04-01T18:11:30.579Z,18.23
2019-04-01T18:14:02.740Z,16.73
2019-04-01T18:16:31.451Z,18.73
2019-04-01T18:19:00.333Z,21.93
2019-04-01T18:21:29.287Z,25.37
2019-04-01T18:23:57.970Z,19.73
2019-04-01T18:26:26.653Z,14.23
2019-04-01T18:28:55.752Z,6.53
2019-04-01T18:31:24.474Z,12.80
2019-04-01T18:33:56.565Z,9.17
2019-04-01T18:36:23.964Z,6.17
2019-04-01T18:38:52.642Z,6.60
2019-04-01T18:41:21.323Z,6.50
2019-04-01T18:43:50.041Z,5.83
2019-04-01T18:46:21.121Z,6.23
2019-04-01T18:48:49.123Z,6.10
2019-04-01T18:51:20.366Z,5.67
2019-04-01T18:53:48.254Z,5.67
2019-04-01T18:56:16.943Z,5.73
2019-04-01T18:58:45.651Z,5.27
2019-04-01T19:01:15.877Z,5.50
2019-04-01T19:03:44.688Z,5.07
2019-04-01T19:06:13.454Z,5.27
2019-04-01T19:08:42.150Z,5.33
2019-04-01T19:11:10.886Z,5.23
2019-04-01T19:13:39.853Z,5.23
2019-04-01T19:16:11.796Z,5.00
2019-04-01T19:18:41.955Z,5.07
2019-04-01T19:21:12.189Z,5.63
2019-04-01T19:23:40.974Z,5.00
2019-04-01T19:26:11.090Z,4.97
2019-04-01T19:28:40.191Z,5.00
2019-04-01T19:31:08.880Z,4.83
2019-04-01T19:33:38.264Z,6.23
2019-04-01T19:36:07.376Z,5.47
2019-04-01T19:38:36.066Z,5.90
2019-04-01T19:41:04.737Z,6.33
2019-04-01T19:43:56.274Z,6.17
2019-04-01T19:46:16.232Z,7.13
2019-04-01T19:48:44.913Z,7.20
2019-04-01T19:51:13.827Z,7.67
2019-04-01T19:53:42.523Z,11.70
2019-04-01T19:56:11.208Z,46.67
2019-04-01T19:58:39.957Z,74.23
2019-04-01T20:01:08.661Z,61.20
2019-04-01T20:03:37.358Z,37.60
2019-04-01T20:06:07.644Z,25.93
2019-04-01T20:08:36.485Z,21.50
2019-04-01T20:11:05.191Z,26.20
2019-04-01T20:13:33.940Z,25.50
2019-04-01T20:19:08.755Z,19.17
2019-04-01T20:21:37.429Z,18.40
2019-04-01T20:24:06.111Z,19.67
2019-04-01T20:26:34.850Z,24.53
2019-04-01T20:29:03.545Z,24.57
2019-04-01T20:31:32.236Z,21.03
2019-04-01T20:34:04.095Z,17.30
2019-04-01T20:36:31.719Z,17.83
2019-04-01T20:39:00.494Z,16.67
2019-04-01T20:41:29.397Z,15.83
2019-04-01T20:43:58.082Z,16.87
2019-04-01T20:46:26.770Z,18.77
2019-04-01T20:48:55.498Z,17.77
2019-04-01T20:51:25.886Z,19.50
2019-04-01T20:53:54.737Z,18.97
2019-04-01T20:56:23.666Z,19.47
2019-04-01T20:58:52.358Z,60.37
2019-04-01T21:01:21.042Z,52.13
2019-04-01T21:03:49.858Z,91.43
2019-04-01T21:06:18.647Z,133.23
2019-04-01T21:08:47.428Z,93.77
2019-04-01T21:11:16.567Z,75.47
2019-04-01T21:13:45.272Z,59.00
2019-04-01T21:16:13.949Z,32.30
2019-04-01T21:18:42.748Z,22.60
2019-04-01T21:21:11.433Z,21.97
2019-04-01T21:23:40.118Z,27.17
2019-04-01T21:26:08.959Z,26.23
2019-04-01T21:28:37.644Z,26.10
2019-04-01T21:31:06.335Z,35.57
2019-04-01T21:33:35.155Z,25.37
2019-04-01T21:36:03.837Z,32.80
2019-04-01T21:38:33.137Z,36.10
2019-04-01T21:41:02.261Z,27.70
2019-04-01T21:43:30.937Z,22.70
2019-04-01T21:45:59.609Z,20.70
2019-04-01T21:48:28.330Z,17.93
2019-04-01T21:50:57.009Z,15.90
2019-04-01T21:53:25.688Z,14.97
2019-04-01T21:55:54.594Z,11.80
2019-04-01T21:58:23.393Z,9.97
2019-04-01T22:00:56.980Z,9.10
2019-04-01T22:03:25.736Z,8.20
2019-04-01T22:05:54.418Z,9.00
2019-04-01T22:08:23.194Z,7.30
2019-04-01T22:10:51.946Z,6.77
2019-04-01T22:13:20.619Z,6.37
2019-04-01T22:15:50.175Z,6.60
2019-04-01T22:18:19.348Z,5.63
2019-04-01T22:20:48.029Z,7.10
2019-04-01T22:23:16.701Z,6.80
2019-04-01T22:25:45.561Z,6.77
2019-04-01T22:28:14.231Z,6.53
2019-04-01T22:30:42.912Z,6.43
2019-04-01T22:33:11.682Z,7.83
2019-04-01T22:35:41.563Z,7.97
2019-04-01T22:38:10.683Z,8.40
2019-04-01T22:40:39.506Z,8.50
2019-04-01T22:43:08.197Z,8.67
2019-04-01T22:45:36.874Z,9.47
2019-04-01T22:48:05.614Z,9.67
2019-04-01T22:50:34.290Z,9.93
2019-04-01T22:53:04.286Z,10.77
2019-04-01T22:55:33.198Z,10.60
2019-04-01T22:58:01.878Z,9.07
2019-04-01T23:00:30.565Z,10.17
2019-04-01T23:02:59.791Z,9.33
2019-04-01T23:05:28.477Z,9.43
2019-04-01T23:07:57.157Z,9.67
2019-04-01T23:10:27.250Z,10.00
2019-04-01T23:12:56.224Z,8.03
2019-04-01T23:15:24.896Z,6.57
2019-04-01T23:17:53.740Z,7.73
2019-04-01T23:20:22.413Z,8.57
2019-04-01T23:22:51.087Z,7.40
2019-04-01T23:25:20.217Z,7.97
2019-04-01T23:27:48.896Z,8.43
2019-04-01T23:30:17.567Z,8.23
2019-04-01T23:32:46.392Z,8.27
2019-04-01T23:35:15.164Z,9.10
2019-04-01T23:37:43.852Z,10.40
2019-04-01T23:40:12.890Z,9.43
2019-04-01T23:42:41.568Z,11.70
2019-04-01T23:45:10.742Z,18.93
2019-04-01T23:47:39.578Z,16.57
2019-04-01T23:50:09.833Z,15.93
2019-04-01T23:52:38.619Z,21.13
2019-04-01T23:55:07.568Z,16.43
2019-04-01T23:57:36.247Z,15.90
